• Join FlightAware (Why Join?)
  • Login
  • US Flag 
11:53AM EST


 

Airport Tracker/Info


-or-


 

Live Flight TrackerFlight Track Log ✈ JIA2328 ✈ 04-May-2013 ✈ KPHL - KALB

Flight Track Log - Related Links

Times and Time Zones

All times are in EDT time to prevent confusion due to time zone crossing. See the JIA2328 flight status page for this flight to view local times or setup timezone preferences in your user account.

Time Position Orientation Groundspeed Altitude Reporting Facility
EDT Latitude Longitude Course Direction KTS MPH feet Rate Location/Type
07:45AM 39.8833 -75.2000 37° Northeast 148 170 1,000  Level Philadelphia TRACON
07:47AM 39.8167 -74.8856 90° East  Level FlightAware Approximate
07:47AM 39.8647 -75.0603 100° East 207 238 7,500  Level New York Center
07:48AM 39.7968 -74.7672 105° East  Level FlightAware Approximate
07:48AM 39.8467 -74.9806 106° East 241 277 10,400  Level New York Center
07:49AM 39.8152 -74.6682 37° Northeast  Level FlightAware Approximate
07:49AM 39.8214 -74.8656 106° East 280 322 11,800  Level New York Center
07:50AM 39.8893 -74.5941 37° Northeast  Level FlightAware Approximate
07:50AM 39.8047 -74.7511 101° East 321 369 13,200  Level New York Center
07:51AM 39.8622 -74.6517 53° Northeast 308 354 15,400 1,860 Climbing New York Center
07:52AM 39.9442 -74.5694 38° Northeast 325 374 16,900 1,380 Climbing New York Center
07:53AM 40.0364 -74.4797 37° Northeast 341 392 18,200 1,260 Climbing New York Center
07:54AM 40.1142 -74.3997 38° Northeast 380 437 19,500 1,320 Climbing New York Center
07:55AM 40.1978 -74.3172 37° Northeast 380 437 20,900 1,260 Climbing New York Center
07:56AM 40.2817 -74.2317 38° Northeast 380 437 22,000 840 Climbing New York Center
07:57AM 40.3756 -74.1547 32° Northeast 380 437 22,700 600 Climbing New York Center
07:58AM 40.4756 -74.0858 28° Northeast 392 451 23,300 360 Climbing New York Center
08:00AM 40.7236 -73.9161 27° Northeast 401 461 24,000 180 Climbing Boston Center
08:01AM 40.8206 -73.8333 33° Northeast 406 467 24,000  Level Boston Center
08:02AM 40.9072 -73.7253 43° Northeast 416 479 24,000 -180 Level Boston Center
08:03AM 40.9875 -73.6197 45° Northeast 416 479 23,700 -480 Descending Boston Center
08:04AM 41.0822 -73.5333 34° Northeast 411 473 23,100 -360 Descending Boston Center
08:05AM 41.1828 -73.4633 28° Northeast 411 473 23,000 -240 Descending Boston Center
08:06AM 41.2814 -73.3986 26° Northeast 400 460 22,700 -600 Descending Boston Center
08:07AM 41.3917 -73.4058 357° North 378 435 21,800 -840 Descending Boston Center
08:08AM 41.5000 -73.4242 353° North 384 442 21,100 -780 Descending Boston Center
08:09AM 41.6164 -73.4453 352° North 384 442 20,300 -900 Descending Boston Center
08:10AM 41.7017 -73.4606 352° North 389 448 19,400 -1,740 Descending Boston Center
08:11AM 41.8328 -73.4794 354° North 389 448 16,900 -2,520 Descending Boston Center
08:12AM 41.9308 -73.4950 353° North 390 449 14,700 -2,520 Descending Boston Center
08:13AM 41.9931 -73.5044 354° North 378 435 13,200 -2,340 Descending Boston Center
08:13AM 42.0411 -73.5136 352° North 378 435 12,100 -2,220 Descending Boston Center
08:13AM 42.0783 -73.5197 353° North 364 419 11,200 -1,140 Descending Boston Center
08:14AM 42.1367 -73.5375 347° North 365 420 11,000 -240 Descending Boston Center
08:14AM 42.1739 -73.5606 335° Northwest 329 379 11,000 -120 Level Boston Center
08:15AM 42.2194 -73.5922 333° Northwest 340 391 10,900 -600 Descending Boston Center
08:15AM 42.2528 -73.6069 342° North 305 351 10,400 -1,320 Descending Boston Center
08:16AM 42.2939 -73.6386 330° Northwest 311 358 9,600 -1,560 Descending Boston Center
08:16AM 42.3189 -73.6531 337° Northwest 274 315 9,000 -1,920 Descending Boston Center
08:17AM 42.3603 -73.6764 337° Northwest 282 325 7,700 -2,100 Descending Boston Center
08:17AM 42.3872 -73.6939 334° Northwest 266 306 6,900 -1,920 Descending Boston Center
08:18AM 42.4225 -73.7142 337° Northwest 269 310 5,800 -1,920 Descending Boston Center
08:18AM 42.4533 -73.7344 334° Northwest 265 305 5,000 -1,920 Descending Boston Center
08:19AM 42.4950 -73.7578 338° Northwest 257 296 3,900 -1,800 Descending Boston Center
08:19AM 42.5175 -73.7753 330° Northwest 255 293 3,200 -900 Descending Boston Center
08:20AM 42.5531 -73.7844 349° North 252 290 3,000 -240 Descending Boston Center
08:20AM 42.5800 -73.7936 346° North 204 235 3,000 -300 Level Boston Center
08:21AM 42.6111 -73.8028 348° North 214 246 2,700 -360 Descending Boston Center